Main page
METAR-TAF:

METAR-TAF

Airports :

Toledo Executive Airport

Toledo, Ohio, United States

latitude: 41-33-47N, longitude: 083-28-35W, elevation: 620 ft

Current weather observation

The report was made 26 minutes ago, at 18:22 UTC
Wind 12 mph from the North
Temperature 48°F
Humidity 57%
Pressure 30.21 in. Hg
Visibility: 10 miles
Overcast at a height of 2900 ft

METAR: KTDZ 241822Z AUTO 35010KT 10SM OVC029 09/01 A3021 RMK AO2 T00890011

Time: 14:48 (18:48 UTC)


TAF: missing

Weather observations and forecasts of more than 4000 airports (METAR and TAF reports).

The available stations are represented by yellow and red dots on the map.

Hover mouse over dot to see the name of the station.

Then click to see weather observations and forecasts.

To change the map : click on the green buttons with a black cross to zoom in, on the green button with a dash to zoom out, or on the green arrows for adjacent maps.


METAR-TAF: